Time;durP1;ratioP1;P1;durP2;ratioP2;P2;SDS_P1;SDS_P2;PMS_P1;PMS_P2;Temp;Humidity;BMP_temperature;BMP_pressure;BME280_temperature;BME280_humidity;BME280_pressure;Samples;Min_cycle;Max_cycle;Signal;HPM_P1;HPM_P2
2021/06/28 00:00:30;;;;;;;10.03;9.33;;;19.70;99.90;;;;;;4880272;29;20230;-83
2021/06/28 00:02:58;;;;;;;9.10;8.50;;;19.70;99.90;;;;;;4896044;29;20209;-83
2021/06/28 00:05:27;;;;;;;9.83;9.17;;;19.70;99.90;;;;;;4880371;29;20293;-83
2021/06/28 00:07:54;;;;;;;9.63;8.93;;;19.60;99.90;;;;;;4880958;29;20220;-83
2021/06/28 00:10:23;;;;;;;10.90;10.00;;;19.60;99.90;;;;;;4875784;29;20232;-83
2021/06/28 00:12:51;;;;;;;10.27;9.57;;;19.60;99.90;;;;;;4880973;29;20666;-83
2021/06/28 00:15:20;;;;;;;10.20;9.50;;;19.50;99.90;;;;;;4879970;29;20217;-82
2021/06/28 00:17:48;;;;;;;10.67;9.87;;;19.50;99.90;;;;;;4879738;29;20239;-83
2021/06/28 00:20:16;;;;;;;10.63;9.93;;;19.50;99.90;;;;;;4880959;29;20236;-83
2021/06/28 00:22:45;;;;;;;10.50;9.57;;;19.50;99.90;;;;;;4879767;29;20222;-83
2021/06/28 00:25:14;;;;;;;10.43;9.73;;;19.50;99.90;;;;;;4879760;29;20207;-83
2021/06/28 00:27:42;;;;;;;10.40;9.77;;;19.50;99.90;;;;;;4879614;29;20210;-83
2021/06/28 00:30:12;;;;;;;10.47;9.77;;;19.40;99.90;;;;;;4879503;29;20237;-83
2021/06/28 00:32:39;;;;;;;10.33;9.73;;;19.40;99.90;;;;;;4880625;29;20225;-83
2021/06/28 00:35:08;;;;;;;10.87;10.07;;;19.40;99.90;;;;;;4879540;29;20618;-82
2021/06/28 00:37:36;;;;;;;10.87;10.10;;;19.40;99.90;;;;;;4879335;29;20224;-83
2021/06/28 00:40:06;;;;;;;11.07;10.27;;;19.40;99.90;;;;;;4879296;29;20739;-83
2021/06/28 00:42:33;;;;;;;10.50;9.80;;;19.40;99.90;;;;;;4879168;29;20280;-82
2021/06/28 00:45:00;;;;;;;10.77;9.97;;;19.40;99.90;;;;;;4879439;29;20205;-83
2021/06/28 00:47:27;;;;;;;10.83;9.93;;;19.40;99.90;;;;;;4880452;29;20210;-83
2021/06/28 00:49:53;;;;;;;10.30;9.70;;;19.40;99.90;;;;;;4879378;29;20228;-83
2021/06/28 00:52:20;;;;;;;11.00;10.30;;;19.40;99.90;;;;;;4879255;29;20227;-82
2021/06/28 00:54:47;;;;;;;11.17;10.37;;;19.40;99.90;;;;;;4879241;29;20212;-83
2021/06/28 00:57:15;;;;;;;10.57;9.83;;;19.40;99.90;;;;;;4878998;29;20308;-83
2021/06/28 00:59:44;;;;;;;10.80;10.10;;;19.40;99.90;;;;;;4878609;29;20232;-83
2021/06/28 01:02:11;;;;;;;11.00;10.30;;;19.40;99.90;;;;;;4880683;29;20205;-83
2021/06/28 01:04:38;;;;;;;11.13;10.23;;;19.30;99.90;;;;;;4878945;29;20205;-83
2021/06/28 01:07:05;;;;;;;11.23;10.50;;;19.30;99.90;;;;;;4879925;29;20204;-83
2021/06/28 01:09:32;;;;;;;10.70;10.00;;;19.30;99.90;;;;;;4880280;29;20327;-83
2021/06/28 01:11:58;;;;;;;10.87;10.17;;;19.30;99.90;;;;;;4879439;29;20589;-84
2021/06/28 01:14:27;;;;;;;11.57;10.77;;;19.30;99.90;;;;;;4876344;29;20206;-84
2021/06/28 01:16:54;;;;;;;11.07;10.37;;;19.30;99.90;;;;;;4879542;29;20215;-83
2021/06/28 01:19:26;;;;;;;11.20;10.40;;;19.20;99.90;;;;;;4878975;29;20234;-83
2021/06/28 01:21:55;;;;;;;13.77;12.97;;;19.20;99.90;;;;;;4878784;29;20206;-83
2021/06/28 01:24:23;;;;;;;11.70;11.00;;;19.20;99.90;;;;;;4879681;29;20216;-85
2021/06/28 01:26:51;;;;;;;11.47;10.77;;;19.20;99.90;;;;;;4888980;29;20332;-85
2021/06/28 01:29:18;;;;;;;12.50;11.60;;;19.20;99.90;;;;;;4909025;23;20243;-76
2021/06/28 01:31:45;;;;;;;11.50;10.80;;;19.20;99.90;;;;;;4917346;29;20187;-75
2021/06/28 01:34:12;;;;;;;11.50;10.70;;;19.20;99.90;;;;;;4916321;29;20276;-75
2021/06/28 01:36:38;;;;;;;11.63;10.80;;;19.10;99.90;;;;;;4917158;29;20207;-76
2021/06/28 01:39:05;;;;;;;11.53;10.83;;;19.10;99.90;;;;;;4916827;29;20722;-75
2021/06/28 01:41:34;;;;;;;12.10;11.20;;;19.20;99.90;;;;;;4908925;29;20206;-76
2021/06/28 01:44:00;;;;;;;10.87;10.17;;;19.10;99.90;;;;;;4901056;29;20200;-76
2021/06/28 01:46:27;;;;;;;11.87;11.07;;;19.00;99.90;;;;;;4905074;29;20215;-76
2021/06/28 01:48:54;;;;;;;11.50;10.70;;;19.00;99.90;;;;;;4906205;29;20704;-75
2021/06/28 01:51:21;;;;;;;11.70;10.90;;;19.00;99.90;;;;;;4912520;29;20204;-75
2021/06/28 01:53:48;;;;;;;11.67;10.87;;;19.00;99.90;;;;;;4906229;29;20212;-76
2021/06/28 01:56:15;;;;;;;12.20;11.40;;;19.00;99.90;;;;;;4904399;29;20214;-76
2021/06/28 01:58:43;;;;;;;11.70;10.90;;;19.00;99.90;;;;;;4901132;29;20212;-75
2021/06/28 02:01:09;;;;;;;11.67;10.97;;;18.90;99.90;;;;;;4903712;29;20284;-76
2021/06/28 02:03:38;;;;;;;12.27;11.37;;;18.90;99.90;;;;;;4903527;29;20211;-77
2021/06/28 02:06:05;;;;;;;11.60;10.90;;;18.90;99.90;;;;;;4908328;29;20571;-77
2021/06/28 02:08:34;;;;;;;12.33;11.43;;;18.90;99.90;;;;;;4917342;29;20197;-77
2021/06/28 02:11:04;;;;;;;12.87;12.07;;;18.90;99.90;;;;;;4908589;29;20228;-77
2021/06/28 02:13:33;;;;;;;11.67;10.97;;;18.90;99.90;;;;;;4905913;29;20216;-77
2021/06/28 02:16:02;;;;;;;12.30;11.50;;;18.90;99.90;;;;;;4902148;29;20576;-77
2021/06/28 02:18:29;;;;;;;12.53;11.73;;;18.90;99.90;;;;;;4902070;29;20200;-77
2021/06/28 02:20:58;;;;;;;12.40;11.60;;;18.80;99.90;;;;;;4903201;29;20238;-77
2021/06/28 02:23:31;;;;;;;13.30;12.50;;;18.80;99.90;;;;;;4909068;29;20196;-77
2021/06/28 02:26:00;;;;;;;13.30;12.40;;;18.80;99.90;;;;;;4903957;29;20211;-77
2021/06/28 02:28:28;;;;;;;11.97;11.23;;;18.80;99.90;;;;;;4908675;29;20204;-77
2021/06/28 02:30:57;;;;;;;12.13;11.33;;;18.80;99.90;;;;;;4904115;29;20227;-77
2021/06/28 02:33:26;;;;;;;12.23;11.47;;;18.90;99.90;;;;;;4910308;29;20219;-78
2021/06/28 02:35:54;;;;;;;12.27;11.47;;;18.80;99.90;;;;;;4898999;29;20553;-78
2021/06/28 02:38:21;;;;;;;12.30;11.40;;;18.90;99.90;;;;;;4904954;29;20211;-80
2021/06/28 02:40:48;;;;;;;13.17;12.27;;;18.90;99.90;;;;;;4905210;29;20238;-81
2021/06/28 02:43:15;;;;;;;12.80;12.00;;;18.90;99.90;;;;;;4895584;29;20274;-80
2021/06/28 02:45:42;;;;;;;12.40;11.50;;;18.90;99.90;;;;;;4898460;29;20200;-82
2021/06/28 02:48:09;;;;;;;12.70;11.80;;;18.80;99.90;;;;;;4906097;29;20204;-81
2021/06/28 02:50:37;;;;;;;12.83;11.90;;;18.80;99.90;;;;;;4909170;29;20231;-82
2021/06/28 02:53:05;;;;;;;12.67;11.87;;;18.80;99.90;;;;;;4895313;29;20629;-81
2021/06/28 02:55:32;;;;;;;12.70;11.90;;;18.80;99.90;;;;;;4901715;29;20255;-80
2021/06/28 02:57:59;;;;;;;12.90;11.87;;;18.80;99.90;;;;;;4901363;29;20289;-78
2021/06/28 03:00:26;;;;;;;13.80;12.90;;;18.80;99.90;;;;;;4899642;29;20234;-77
2021/06/28 03:02:53;;;;;;;13.20;12.30;;;18.80;99.90;;;;;;4901652;29;20209;-77
2021/06/28 03:05:20;;;;;;;13.03;12.10;;;18.80;99.90;;;;;;4904156;29;20636;-79
2021/06/28 03:07:48;;;;;;;13.40;12.43;;;18.70;99.90;;;;;;4906356;29;20196;-77
2021/06/28 03:10:15;;;;;;;13.20;12.30;;;18.70;99.90;;;;;;4911630;29;20641;-77
2021/06/28 03:12:42;;;;;;;14.50;13.40;;;18.70;99.90;;;;;;4906970;29;20713;-78
2021/06/28 03:15:12;;;;;;;13.03;12.23;;;18.60;99.90;;;;;;4899214;29;20211;-77
2021/06/28 03:17:39;;;;;;;13.67;12.57;;;18.60;99.90;;;;;;4897982;29;20213;-78
2021/06/28 03:20:08;;;;;;;13.87;12.93;;;18.70;99.90;;;;;;4900155;29;20322;-79
2021/06/28 03:22:35;;;;;;;13.63;12.70;;;18.70;99.90;;;;;;4903242;29;20203;-80
2021/06/28 03:25:04;;;;;;;13.70;12.50;;;18.60;99.90;;;;;;4900750;29;20234;-78
2021/06/28 03:27:31;;;;;;;13.67;12.77;;;18.70;99.90;;;;;;4905441;29;20202;-77
2021/06/28 03:29:58;;;;;;;15.23;14.23;;;18.70;99.90;;;;;;4907741;29;20235;-77
2021/06/28 03:32:25;;;;;;;14.63;13.20;;;18.60;99.90;;;;;;4910962;29;20210;-77
2021/06/28 03:34:52;;;;;;;13.50;12.60;;;18.70;99.90;;;;;;4903461;29;20231;-77
2021/06/28 03:37:19;;;;;;;14.17;13.27;;;18.70;99.90;;;;;;4900631;29;20203;-77
2021/06/28 03:39:46;;;;;;;15.10;14.10;;;18.60;99.90;;;;;;4900909;29;20718;-77
2021/06/28 03:42:14;;;;;;;13.77;12.77;;;18.60;99.90;;;;;;4911982;29;20199;-77
2021/06/28 03:44:41;;;;;;;14.30;13.27;;;18.60;99.90;;;;;;4903407;29;20241;-77
2021/06/28 03:47:08;;;;;;;13.97;13.07;;;18.60;99.90;;;;;;4913941;29;20282;-77
2021/06/28 03:49:35;;;;;;;14.70;13.70;;;18.60;99.90;;;;;;4914698;29;20235;-77
2021/06/28 03:52:02;;;;;;;13.60;12.70;;;18.60;99.90;;;;;;4911764;29;20685;-77
2021/06/28 03:54:29;;;;;;;13.70;12.90;;;18.50;99.90;;;;;;4903471;29;20223;-77
2021/06/28 03:56:56;;;;;;;13.97;13.07;;;18.50;99.90;;;;;;4909810;29;20196;-77
2021/06/28 03:59:24;;;;;;;14.03;13.13;;;18.50;99.90;;;;;;4906615;29;20230;-76
2021/06/28 04:01:51;;;;;;;15.10;14.00;;;18.50;99.90;;;;;;4902594;29;20219;-77
2021/06/28 04:04:20;;;;;;;15.63;14.53;;;18.50;99.90;;;;;;4899346;29;20208;-77
2021/06/28 04:06:46;;;;;;;14.57;13.67;;;18.50;99.90;;;;;;4907813;29;20284;-77
2021/06/28 04:09:13;;;;;;;14.60;13.70;;;18.50;99.90;;;;;;4907088;29;20219;-77
2021/06/28 04:11:40;;;;;;;15.10;14.10;;;18.40;99.90;;;;;;4908648;29;20686;-76
2021/06/28 04:14:07;;;;;;;14.60;13.70;;;18.50;99.90;;;;;;4899259;29;20231;-76
2021/06/28 04:16:35;;;;;;;14.53;13.53;;;18.60;99.90;;;;;;4907758;29;20211;-77
2021/06/28 04:19:02;;;;;;;14.83;13.90;;;18.60;99.90;;;;;;4914526;29;20200;-77
2021/06/28 04:21:29;;;;;;;15.60;14.60;;;18.80;99.90;;;;;;4914644;29;20204;-77
2021/06/28 04:23:55;;;;;;;14.90;14.00;;;18.80;99.90;;;;;;4902332;29;20202;-77
2021/06/28 04:26:22;;;;;;;14.53;13.63;;;18.80;99.90;;;;;;4893543;29;20209;-77
2021/06/28 04:28:49;;;;;;;14.43;13.53;;;18.80;99.90;;;;;;4911099;29;20215;-77
2021/06/28 04:31:16;;;;;;;14.20;13.30;;;18.90;99.90;;;;;;4909748;29;20215;-77
2021/06/28 04:33:44;;;;;;;14.07;13.17;;;18.90;99.90;;;;;;4910340;29;20748;-77
2021/06/28 04:36:11;;;;;;;13.27;12.37;;;18.90;99.90;;;;;;4909758;29;20212;-77
2021/06/28 04:38:38;;;;;;;14.00;13.10;;;18.90;99.90;;;;;;4914895;29;20230;-77
2021/06/28 04:41:05;;;;;;;13.63;12.70;;;19.00;99.90;;;;;;4910115;29;20231;-77
2021/06/28 04:43:32;;;;;;;14.00;13.10;;;19.10;99.90;;;;;;4910689;29;20200;-77
2021/06/28 04:45:59;;;;;;;14.23;13.33;;;19.10;99.90;;;;;;4911379;29;20213;-77
2021/06/28 04:48:25;;;;;;;13.20;12.33;;;19.30;99.90;;;;;;4910767;29;20272;-76
2021/06/28 04:50:54;;;;;;;14.23;13.33;;;19.30;99.90;;;;;;4914480;29;20209;-76
2021/06/28 04:53:20;;;;;;;13.83;12.83;;;19.40;99.90;;;;;;4911088;29;20700;-77
2021/06/28 04:55:48;;;;;;;5.80;5.30;;;19.80;99.90;;;;;;4911688;29;20205;-77
2021/06/28 04:58:15;;;;;;;6.67;5.97;;;19.80;99.90;;;;;;4910040;29;20252;-77
2021/06/28 05:00:42;;;;;;;7.77;7.13;;;19.70;99.90;;;;;;4906065;29;20228;-77
2021/06/28 05:03:08;;;;;;;8.20;7.60;;;19.70;99.90;;;;;;4916854;29;20261;-77
2021/06/28 05:05:35;;;;;;;7.37;6.77;;;19.70;99.90;;;;;;4907282;29;20232;-77
2021/06/28 05:08:04;;;;;;;7.13;6.43;;;19.70;99.90;;;;;;4909080;29;20260;-76
2021/06/28 05:10:31;;;;;;;12.53;11.63;;;19.80;99.90;;;;;;4912259;29;20216;-77
2021/06/28 05:12:58;;;;;;;13.13;12.03;;;19.90;99.90;;;;;;4907048;29;20208;-77
2021/06/28 05:15:24;;;;;;;10.30;9.60;;;19.90;99.90;;;;;;4922256;29;20215;-77
2021/06/28 05:17:51;;;;;;;6.80;6.30;;;20.10;99.90;;;;;;4914821;29;20289;-76
2021/06/28 05:20:18;;;;;;;10.30;9.60;;;20.20;99.90;;;;;;4912107;29;20875;-77
2021/06/28 05:22:45;;;;;;;9.50;8.70;;;20.40;99.90;;;;;;4908554;29;20209;-76
2021/06/28 05:25:14;;;;;;;9.10;8.50;;;20.50;99.90;;;;;;4913351;29;20583;-78
2021/06/28 05:27:41;;;;;;;9.93;9.33;;;20.80;99.90;;;;;;4913230;29;20211;-76
2021/06/28 05:30:11;;;;;;;10.17;9.47;;;21.20;99.90;;;;;;4914092;29;20241;-76
2021/06/28 05:32:39;;;;;;;9.73;9.00;;;21.40;99.90;;;;;;4909443;29;20788;-77
2021/06/28 05:35:08;;;;;;;5.70;4.47;;;21.30;99.90;;;;;;4909399;29;20545;-77
2021/06/28 05:37:35;;;;;;;5.13;4.60;;;21.50;99.90;;;;;;4906434;29;20215;-77
2021/06/28 05:40:02;;;;;;;4.90;4.50;;;21.80;99.90;;;;;;4903914;29;20228;-79
2021/06/28 05:42:30;;;;;;;11.17;10.37;;;22.30;99.90;;;;;;4901954;29;20216;-79
2021/06/28 05:44:57;;;;;;;10.97;10.17;;;22.90;99.90;;;;;;4902033;29;20200;-79
2021/06/28 05:47:24;;;;;;;10.97;10.27;;;23.80;99.90;;;;;;4910515;29;20264;-77
2021/06/28 05:49:51;;;;;;;9.80;9.00;;;24.40;99.90;;;;;;4910447;29;20725;-77
2021/06/28 05:52:20;;;;;;;9.47;8.80;;;25.10;99.90;;;;;;4909286;29;20561;-77
2021/06/28 05:54:48;;;;;;;9.33;8.73;;;25.60;99.90;;;;;;4903848;29;20223;-77
2021/06/28 05:57:15;;;;;;;9.50;8.77;;;26.00;99.90;;;;;;4904699;29;20209;-77
2021/06/28 05:59:44;;;;;;;10.00;9.20;;;26.20;99.90;;;;;;4898224;29;20220;-77
2021/06/28 06:02:10;;;;;;;8.73;8.10;;;26.50;99.90;;;;;;4899253;29;20245;-79
2021/06/28 06:04:37;;;;;;;4.33;3.70;;;26.30;99.90;;;;;;4898557;29;20736;-76
2021/06/28 06:07:04;;;;;;;6.47;3.70;;;26.40;99.90;;;;;;4904974;29;20211;-76
2021/06/28 06:09:31;;;;;;;7.03;6.53;;;26.20;99.90;;;;;;4895182;29;20285;-77
2021/06/28 06:11:58;;;;;;;4.03;3.30;;;26.50;99.90;;;;;;4899861;29;20264;-77
2021/06/28 06:14:25;;;;;;;3.50;3.20;;;26.70;99.90;;;;;;4899569;29;20221;-77
2021/06/28 06:16:53;;;;;;;3.97;3.67;;;26.70;99.90;;;;;;4900748;29;20193;-79
2021/06/28 06:19:20;;;;;;;4.13;3.40;;;26.60;99.90;;;;;;4902972;29;20268;-77
2021/06/28 06:21:47;;;;;;;4.83;3.70;;;26.80;99.90;;;;;;4897705;29;20201;-76
2021/06/28 06:24:13;;;;;;;3.60;3.27;;;27.10;99.90;;;;;;4900287;29;20666;-77
2021/06/28 06:26:40;;;;;;;3.50;3.20;;;27.10;99.90;;;;;;4906180;29;20211;-76
2021/06/28 06:29:07;;;;;;;6.23;3.30;;;27.20;99.90;;;;;;4898325;29;20224;-77
2021/06/28 06:31:34;;;;;;;5.33;3.73;;;27.30;99.90;;;;;;4904618;29;20208;-76
2021/06/28 06:34:02;;;;;;;5.03;4.63;;;26.90;99.90;;;;;;4900024;29;20212;-77
2021/06/28 06:36:29;;;;;;;6.47;5.80;;;26.80;99.90;;;;;;4905220;29;20197;-77
2021/06/28 06:38:56;;;;;;;7.20;6.50;;;26.50;99.90;;;;;;4908014;29;20196;-77
2021/06/28 06:41:23;;;;;;;8.80;8.13;;;26.30;99.90;;;;;;4907764;29;20668;-77
2021/06/28 06:43:50;;;;;;;9.47;8.80;;;26.20;99.90;;;;;;4899931;29;20208;-76
2021/06/28 06:46:17;;;;;;;9.63;9.00;;;26.30;99.90;;;;;;4908696;29;20273;-76
2021/06/28 06:48:44;;;;;;;9.50;8.80;;;26.20;99.90;;;;;;4901485;29;20278;-77
2021/06/28 06:51:12;;;;;;;9.57;8.97;;;26.10;99.90;;;;;;4908710;29;20585;-78
2021/06/28 06:53:39;;;;;;;9.77;8.97;;;26.20;99.90;;;;;;4897594;29;20224;-77
2021/06/28 06:56:08;;;;;;;10.13;9.20;;;26.30;99.90;;;;;;4907800;29;20196;-78
2021/06/28 06:58:36;;;;;;;9.60;8.77;;;26.40;99.90;;;;;;4905818;29;20671;-77
2021/06/28 07:01:04;;;;;;;8.93;8.33;;;26.20;99.90;;;;;;4906210;29;20217;-77
2021/06/28 07:03:31;;;;;;;8.83;8.23;;;25.60;99.90;;;;;;4896833;29;20201;-76
2021/06/28 07:05:58;;;;;;;8.83;8.20;;;25.60;99.90;;;;;;4919448;29;20197;-78
2021/06/28 07:08:26;;;;;;;8.77;8.17;;;25.70;99.90;;;;;;4898336;29;20508;-78
2021/06/28 07:10:53;;;;;;;8.90;8.30;;;26.30;99.90;;;;;;4901726;29;20213;-79
2021/06/28 07:13:20;;;;;;;9.13;8.43;;;26.60;99.90;;;;;;4906329;29;20203;-77
2021/06/28 07:15:46;;;;;;;10.03;8.63;;;26.50;99.90;;;;;;4903084;29;20236;-76
2021/06/28 07:18:13;;;;;;;9.07;8.47;;;26.60;99.90;;;;;;4889547;29;20203;-77
2021/06/28 07:20:40;;;;;;;10.20;9.60;;;26.90;99.90;;;;;;4909065;29;20224;-77
2021/06/28 07:23:08;;;;;;;3.93;3.63;;;27.30;99.90;;;;;;4904545;29;20211;-76
2021/06/28 07:25:36;;;;;;;5.30;4.90;;;27.50;99.90;;;;;;4906147;29;20202;-77
2021/06/28 07:28:04;;;;;;;3.67;3.37;;;27.80;99.90;;;;;;4900410;29;20196;-77
2021/06/28 07:30:59;;;;;;;8.57;7.97;;;28.20;99.90;;;;;;4950936;23;20238;-82
2021/06/28 07:33:27;;;;;;;7.63;7.13;;;28.30;99.90;;;;;;4916459;29;20206;-82
2021/06/28 07:35:54;;;;;;;8.97;8.27;;;28.30;99.90;;;;;;4915938;29;20212;-82
2021/06/28 07:38:22;;;;;;;8.87;8.07;;;28.10;99.90;;;;;;4915512;29;20210;-82
2021/06/28 07:40:52;;;;;;;8.37;7.87;;;28.20;99.90;;;;;;4921844;29;20683;-83
2021/06/28 07:43:25;;;;;;;7.67;7.17;;;28.10;99.90;;;;;;4921103;29;20242;-83
2021/06/28 07:45:54;;;;;;;10.60;8.53;;;28.20;99.90;;;;;;4922484;29;20192;-82
2021/06/28 07:48:46;;;;;;;8.60;8.10;;;28.30;99.90;;;;;;4930555;29;20235;-83
2021/06/28 07:54:00;;;;;;;3.90;3.60;;;28.40;99.90;;;;;;4724455;23;20734;-81
2021/06/28 07:56:30;;;;;;;9.87;9.17;;;28.20;99.90;;;;;;4921762;29;20254;-83
2021/06/28 07:59:50;;;;;;;8.70;8.10;;;28.60;99.90;;;;;;4926540;29;20196;-83
2021/06/28 08:02:35;;;;;;;6.63;6.13;;;29.00;99.90;;;;;;4899116;29;20266;-84
2021/06/28 08:05:49;;;;;;;7.50;7.00;;;28.80;99.90;;;;;;4892361;29;20197;-84
2021/06/28 08:09:01;;;;;;;4.77;3.13;;;29.10;99.90;;;;;;4911970;29;20227;-83
2021/06/28 08:11:32;;;;;;;3.40;3.10;;;29.20;99.90;;;;;;4899424;29;20231;-84
2021/06/28 08:14:03;;;;;;;3.53;3.23;;;29.10;99.90;;;;;;4899158;29;20232;-83
2021/06/28 08:16:58;;;;;;;5.80;5.40;;;29.60;99.90;;;;;;4899363;29;20213;-85
2021/06/28 08:19:28;;;;;;;4.67;4.23;;;29.70;99.90;;;;;;4917547;29;20209;-84
2021/06/28 08:22:18;;;;;;;4.83;4.53;;;30.00;99.90;;;;;;4903860;29;20201;-85
2021/06/28 08:35:01;;;;;;;3.33;3.03;;;29.50;99.90;;;;;;4864389;29;20760;-83
2021/06/28 08:37:32;;;;;;;5.93;5.50;;;30.00;99.90;;;;;;4844606;29;20212;-81
2021/06/28 08:40:06;;;;;;;3.77;3.47;;;30.10;99.90;;;;;;4872715;29;20255;-83
2021/06/28 08:42:38;;;;;;;6.77;6.37;;;30.00;99.90;;;;;;4906103;29;20201;-83
2021/06/28 08:45:11;;;;;;;8.10;7.60;;;29.60;99.90;;;;;;4907747;29;20197;-83
2021/06/28 08:47:42;;;;;;;8.13;7.63;;;29.60;99.90;;;;;;4921719;29;20236;-84
2021/06/28 08:50:14;;;;;;;8.87;8.27;;;29.60;99.90;;;;;;4921334;29;20229;-84
2021/06/28 08:52:44;;;;;;;8.57;8.07;;;29.60;99.90;;;;;;4909405;29;20216;-84
2021/06/28 08:55:17;;;;;;;9.17;8.10;;;29.70;99.90;;;;;;4909789;29;20216;-84
2021/06/28 08:57:46;;;;;;;8.70;8.10;;;29.90;99.90;;;;;;4907503;29;20211;-83
2021/06/28 09:00:18;;;;;;;9.13;8.53;;;29.90;99.90;;;;;;4919449;29;20307;-83
2021/06/28 09:02:56;;;;;;;8.83;8.23;;;29.90;99.90;;;;;;4907325;29;20212;-84
2021/06/28 09:05:26;;;;;;;8.67;8.07;;;30.20;99.90;;;;;;4899571;29;20208;-83
2021/06/28 09:08:11;;;;;;;8.60;7.93;;;30.40;99.90;;;;;;4919159;29;20201;-83
2021/06/28 09:10:43;;;;;;;7.90;7.50;;;30.40;99.90;;;;;;4905698;29;20221;-83
2021/06/28 09:13:13;;;;;;;8.40;7.87;;;30.30;99.90;;;;;;4922756;29;20197;-84
2021/06/28 09:15:43;;;;;;;8.60;8.10;;;30.50;99.90;;;;;;4906904;29;20307;-84
2021/06/28 09:18:18;;;;;;;8.40;7.90;;;31.10;99.90;;;;;;4906528;29;20209;-84
2021/06/28 09:20:46;;;;;;;8.53;8.03;;;31.60;99.90;;;;;;4907740;29;20244;-82
2021/06/28 09:23:21;;;;;;;10.33;9.73;;;31.60;99.90;;;;;;4906750;29;20203;-82
2021/06/28 09:25:48;;;;;;;9.13;8.40;;;31.60;99.90;;;;;;4907055;29;20291;-84
2021/06/28 09:28:16;;;;;;;7.50;7.10;;;31.70;99.90;;;;;;4904832;29;20800;-83
2021/06/28 09:30:53;;;;;;;5.80;5.50;;;31.90;99.90;;;;;;4908102;29;20225;-83
2021/06/28 09:33:21;;;;;;;4.97;4.67;;;31.80;99.90;;;;;;4920116;29;20654;-82
2021/06/28 09:35:48;;;;;;;5.13;4.73;;;31.80;99.90;;;;;;4905232;29;20221;-82
2021/06/28 09:38:38;;;;;;;4.80;4.50;;;31.90;99.90;;;;;;4905030;29;20668;-84
2021/06/28 09:41:30;;;;;;;5.87;4.17;;;31.80;99.90;;;;;;4896370;29;21056;-81
2021/06/28 09:44:05;;;;;;;3.50;3.20;;;31.60;99.90;;;;;;4896291;29;20683;-80
2021/06/28 09:46:35;;;;;;;3.83;3.63;;;32.10;99.90;;;;;;4903252;29;20205;-83
2021/06/28 09:49:03;;;;;;;3.17;2.87;;;32.20;99.90;;;;;;4902587;29;20651;-83
2021/06/28 09:51:32;;;;;;;2.70;2.50;;;32.20;99.90;;;;;;4902153;29;20224;-83
2021/06/28 09:54:18;;;;;;;2.90;2.70;;;32.40;99.90;;;;;;4901620;29;20208;-84
2021/06/28 09:56:50;;;;;;;3.03;2.80;;;32.70;99.90;;;;;;4902747;29;20220;-83
2021/06/28 09:59:30;;;;;;;2.97;2.77;;;32.50;99.90;;;;;;4916108;29;20268;-83
2021/06/28 10:02:19;;;;;;;2.77;2.67;;;31.80;99.90;;;;;;4902514;29;20196;-83
2021/06/28 10:04:52;;;;;;;6.27;5.77;;;31.70;99.90;;;;;;4900522;29;20196;-83
2021/06/28 10:07:30;;;;;;;7.00;6.50;;;32.00;99.90;;;;;;4902761;29;20209;-82
2021/06/28 10:10:17;;;;;;;5.50;5.17;;;32.20;99.90;;;;;;4894008;29;20327;-84
2021/06/28 10:13:02;;;;;;;7.77;7.33;;;31.70;99.90;;;;;;4884392;29;20225;-84
2021/06/28 10:18:28;;;;;;;7.90;7.40;;;31.30;99.90;;;;;;4887471;29;20213;-85
2021/06/28 10:21:23;;;;;;;7.30;6.90;;;31.20;99.90;;;;;;4885674;29;20213;-83
2021/06/28 10:24:04;;;;;;;7.30;6.90;;;31.20;99.90;;;;;;4899769;29;20660;-84
2021/06/28 10:26:38;;;;;;;7.50;7.10;;;31.10;99.90;;;;;;4892130;29;20197;-84
2021/06/28 10:29:18;;;;;;;7.67;7.17;;;31.60;99.90;;;;;;4897504;29;20215;-84
2021/06/28 10:31:53;;;;;;;7.27;6.87;;;31.50;99.90;;;;;;4898582;29;20772;-84
2021/06/28 10:34:21;;;;;;;7.57;7.03;;;31.20;99.90;;;;;;4912883;29;20204;-84
2021/06/28 10:36:54;;;;;;;7.40;6.90;;;31.20;99.90;;;;;;4898484;29;20276;-84
2021/06/28 10:39:26;;;;;;;7.40;7.00;;;30.90;99.90;;;;;;4899670;29;20204;-83
2021/06/28 10:41:55;;;;;;;7.80;7.30;;;30.80;99.90;;;;;;4897825;29;20205;-83
2021/06/28 10:44:23;;;;;;;8.50;7.73;;;30.60;99.90;;;;;;4910727;29;20296;-83
2021/06/28 10:46:51;;;;;;;8.30;7.80;;;30.80;99.90;;;;;;4897541;29;20232;-83
2021/06/28 10:49:43;;;;;;;8.33;7.83;;;30.90;99.90;;;;;;4897366;29;20244;-83
2021/06/28 10:52:10;;;;;;;7.90;7.40;;;30.90;99.90;;;;;;4896346;29;20235;-83
2021/06/28 10:54:38;;;;;;;8.13;7.63;;;31.10;99.90;;;;;;4896326;29;20240;-83
2021/06/28 10:57:11;;;;;;;8.00;7.40;;;31.00;99.90;;;;;;4897082;29;20220;-83
2021/06/28 10:59:44;;;;;;;8.37;7.77;;;31.10;99.90;;;;;;4911619;29;20582;-83
2021/06/28 11:02:13;;;;;;;8.10;7.60;;;31.10;99.90;;;;;;4911694;29;20252;-84
2021/06/28 11:04:43;;;;;;;7.13;6.63;;;31.30;99.90;;;;;;4897442;29;20212;-83
2021/06/28 11:07:13;;;;;;;7.77;7.27;;;31.10;99.90;;;;;;4897097;29;20237;-83
2021/06/28 11:09:46;;;;;;;7.97;7.23;;;31.00;99.90;;;;;;4897202;29;20572;-82
2021/06/28 11:12:37;;;;;;;8.27;7.77;;;31.30;99.90;;;;;;4897303;29;20224;-82
2021/06/28 11:15:07;;;;;;;3.37;3.03;;;31.30;99.90;;;;;;4893665;29;20634;-82
2021/06/28 11:17:46;;;;;;;6.57;6.10;;;30.90;99.90;;;;;;4896054;29;20228;-83
2021/06/28 11:20:27;;;;;;;3.20;3.00;;;30.90;99.90;;;;;;4897833;29;20231;-82
2021/06/28 11:23:04;;;;;;;10.37;9.60;;;30.70;99.90;;;;;;4898909;29;20200;-83
2021/06/28 11:25:45;;;;;;;5.47;4.90;;;30.50;99.90;;;;;;4896445;29;20561;-84
2021/06/28 11:28:25;;;;;;;6.70;6.20;;;30.60;99.90;;;;;;4896168;29;20204;-81
2021/06/28 11:30:58;;;;;;;6.40;6.00;;;30.40;99.90;;;;;;4896442;29;20232;-83
2021/06/28 11:33:46;;;;;;;8.10;7.60;;;30.40;99.90;;;;;;4897280;29;20213;-84
2021/06/28 11:36:35;;;;;;;8.30;7.70;;;30.40;99.90;;;;;;4891170;29;20220;-82
2021/06/28 11:39:21;;;;;;;8.20;7.70;;;30.40;99.90;;;;;;4889614;29;20207;-83
2021/06/28 11:42:22;;;;;;;8.90;8.30;;;30.40;99.90;;;;;;4896075;29;20224;-82
2021/06/28 11:44:51;;;;;;;4.13;3.73;;;30.30;99.90;;;;;;4896675;29;20192;-82
2021/06/28 11:47:18;;;;;;;4.87;4.47;;;30.40;99.90;;;;;;4893990;29;20193;-82
2021/06/28 11:49:44;;;;;;;6.40;5.87;;;30.70;99.90;;;;;;4911369;29;20233;-83
2021/06/28 11:52:16;;;;;;;8.03;7.53;;;30.90;99.90;;;;;;4910527;29;20208;-82
2021/06/28 11:54:44;;;;;;;6.17;5.77;;;30.90;99.90;;;;;;4911232;29;20220;-82
2021/06/28 11:57:12;;;;;;;4.17;3.87;;;30.90;99.90;;;;;;4894728;29;20216;-82
2021/06/28 11:59:41;;;;;;;3.47;3.17;;;30.80;99.90;;;;;;4910762;29;20216;-82
2021/06/28 12:02:09;;;;;;;5.30;4.90;;;30.60;99.90;;;;;;4912656;29;20201;-80
2021/06/28 12:05:00;;;;;;;3.63;3.40;;;30.30;99.90;;;;;;4895923;29;20218;-81
2021/06/28 12:07:29;;;;;;;4.73;4.33;;;30.30;99.90;;;;;;4895969;29;20209;-82
2021/06/28 12:09:59;;;;;;;4.07;3.70;;;30.40;99.90;;;;;;4895034;29;20262;-84
2021/06/28 12:12:26;;;;;;;4.27;3.80;;;30.40;99.90;;;;;;4904953;29;20200;-82
2021/06/28 12:14:55;;;;;;;5.60;3.87;;;30.50;99.90;;;;;;4877814;29;20237;-82
2021/06/28 12:17:27;;;;;;;4.60;4.20;;;30.50;99.90;;;;;;4880780;29;20221;-82
2021/06/28 12:20:00;;;;;;;6.17;5.67;;;30.60;99.90;;;;;;4877680;29;20221;-82
2021/06/28 12:22:30;;;;;;;5.87;5.43;;;30.60;99.90;;;;;;4890787;29;20216;-82
2021/06/28 12:25:02;;;;;;;9.03;8.13;;;30.50;99.90;;;;;;4898976;29;20209;-81
2021/06/28 12:27:31;;;;;;;6.00;5.50;;;30.40;99.90;;;;;;4879914;29;20280;-82
2021/06/28 12:30:00;;;;;;;10.43;9.83;;;30.20;99.90;;;;;;4879587;29;20227;-82
2021/06/28 12:32:28;;;;;;;7.53;7.03;;;30.10;99.90;;;;;;4891623;29;20201;-82
2021/06/28 12:34:58;;;;;;;5.40;5.00;;;30.20;99.90;;;;;;4879547;29;20233;-82
2021/06/28 12:37:35;;;;;;;6.87;6.47;;;30.30;99.90;;;;;;4880572;29;20226;-83
2021/06/28 12:40:15;;;;;;;8.07;7.47;;;30.50;99.90;;;;;;4894088;29;20251;-83
2021/06/28 12:42:44;;;;;;;6.07;5.67;;;30.50;99.90;;;;;;4909368;29;20205;-83
2021/06/28 12:45:13;;;;;;;6.80;6.30;;;30.70;99.90;;;;;;4894941;29;20201;-83
2021/06/28 12:47:41;;;;;;;8.23;7.63;;;30.50;99.90;;;;;;4911606;29;20212;-84
2021/06/28 12:50:16;;;;;;;8.30;7.60;;;30.50;99.90;;;;;;4897434;29;20288;-83
2021/06/28 12:52:44;;;;;;;9.07;8.33;;;30.50;99.90;;;;;;4902201;29;20223;-83
2021/06/28 12:55:21;;;;;;;8.90;8.30;;;30.60;99.90;;;;;;4902943;29;20903;-84
2021/06/28 12:58:01;;;;;;;8.27;7.73;;;30.50;99.90;;;;;;4906946;29;20200;-83
2021/06/28 13:00:38;;;;;;;8.40;7.80;;;30.40;99.90;;;;;;4914160;29;20266;-85
2021/06/28 13:03:09;;;;;;;8.40;7.80;;;30.10;99.90;;;;;;4911553;29;20229;-85
2021/06/28 13:05:38;;;;;;;4.27;3.90;;;30.10;99.90;;;;;;4920292;29;20208;-85
2021/06/28 13:08:16;;;;;;;8.50;7.90;;;30.00;99.90;;;;;;4903843;29;20216;-84
2021/06/28 13:10:56;;;;;;;8.03;7.53;;;29.90;99.90;;;;;;4902471;29;20232;-84